createdAt,value
2023-02-03T00:00:32.611Z,77.80
2023-02-03T00:01:32.630Z,77.80
2023-02-03T00:02:33.646Z,77.80
2023-02-03T00:03:32.576Z,78.01
2023-02-03T00:04:32.573Z,77.59
2023-02-03T00:05:32.590Z,78.08
2023-02-03T00:06:33.564Z,78.18
2023-02-03T00:07:33.570Z,77.97
2023-02-03T00:08:33.534Z,77.80
2023-02-03T00:09:32.572Z,77.76
2023-02-03T00:10:32.528Z,77.87
2023-02-03T00:11:32.527Z,77.56
2023-02-03T00:12:32.480Z,77.56
2023-02-03T00:13:32.494Z,77.15
2023-02-03T00:14:32.523Z,77.04
2023-02-03T00:15:32.468Z,77.15
2023-02-03T00:16:32.531Z,76.84
2023-02-03T00:17:32.432Z,77.04
2023-02-03T00:18:32.452Z,76.63
2023-02-03T00:19:32.441Z,76.63
2023-02-03T00:20:32.425Z,76.84
2023-02-03T00:21:32.449Z,76.84
2023-02-03T00:22:33.384Z,76.73
2023-02-03T00:23:33.406Z,76.63
2023-02-03T00:24:32.363Z,76.53
2023-02-03T00:25:32.374Z,76.63
2023-02-03T00:26:32.367Z,76.42
2023-02-03T00:27:32.356Z,77.04
2023-02-03T00:28:33.318Z,77.15
2023-02-03T00:29:32.326Z,77.15
2023-02-03T00:30:32.354Z,76.84
2023-02-03T00:31:32.472Z,76.94
2023-02-03T00:32:32.417Z,76.94
2023-02-03T00:33:32.272Z,77.15
2023-02-03T00:34:33.250Z,77.15
2023-02-03T00:35:32.249Z,77.01
2023-02-03T00:36:33.264Z,77.04
2023-02-03T00:37:32.256Z,77.25
2023-02-03T00:38:32.245Z,77.04
2023-02-03T00:39:32.186Z,77.04
2023-02-03T00:40:32.176Z,77.42
2023-02-03T00:41:32.197Z,77.11
2023-02-03T00:42:32.178Z,77.01
2023-02-03T00:43:32.176Z,77.11
2023-02-03T00:44:32.147Z,77.01
2023-02-03T00:45:32.197Z,77.25
2023-02-03T00:46:32.167Z,76.94
2023-02-03T00:47:32.166Z,77.04
2023-02-03T00:48:32.108Z,77.56
2023-02-03T00:49:32.111Z,77.22
2023-02-03T00:50:32.085Z,77.56
2023-02-03T00:51:33.074Z,77.31
2023-02-03T00:52:33.103Z,77.45
2023-02-03T00:53:32.042Z,77.42
2023-02-03T00:54:33.810Z,77.01
2023-02-03T00:55:32.060Z,76.90
2023-02-03T00:56:32.042Z,77.11
2023-02-03T00:57:32.001Z,77.56
2023-02-03T00:58:33.016Z,76.90
2023-02-03T00:59:32.020Z,77.42
2023-02-03T01:00:32.998Z,77.01
2023-02-03T01:01:32.050Z,77.45
2023-02-03T01:02:32.034Z,77.62
2023-02-03T01:03:31.932Z,77.04
2023-02-03T01:04:32.968Z,78.31
2023-02-03T01:05:31.915Z,78.08
2023-02-03T01:06:32.895Z,78.18
2023-02-03T01:07:31.940Z,77.87
2023-02-03T01:08:31.892Z,78.59
2023-02-03T01:09:31.893Z,78.28
2023-02-03T01:10:31.888Z,78.28
2023-02-03T01:11:31.865Z,78.38
2023-02-03T01:12:31.879Z,77.97
2023-02-03T01:13:31.826Z,78.59
2023-02-03T01:14:31.819Z,78.59
2023-02-03T01:15:31.806Z,78.08
2023-02-03T01:16:31.816Z,78.08
2023-02-03T01:17:32.814Z,78.38
2023-02-03T01:18:31.807Z,77.97
2023-02-03T01:19:31.833Z,78.28
2023-02-03T01:20:31.771Z,78.38
2023-02-03T01:21:31.808Z,78.49
2023-02-03T01:22:31.763Z,78.49
2023-02-03T01:23:31.717Z,78.69
2023-02-03T01:24:31.718Z,78.66
2023-02-03T01:25:31.698Z,78.08
2023-02-03T01:26:31.731Z,78.49
2023-02-03T01:27:31.712Z,78.49
2023-02-03T01:28:31.691Z,78.49
2023-02-03T01:29:31.668Z,78.18
2023-02-03T01:30:31.710Z,78.18
2023-02-03T01:31:31.862Z,78.55
2023-02-03T01:32:31.693Z,78.38
2023-02-03T01:33:32.637Z,78.38
2023-02-03T01:34:31.633Z,78.08
2023-02-03T01:35:31.595Z,78.04
2023-02-03T01:36:31.626Z,78.08
2023-02-03T01:37:32.611Z,78.45
2023-02-03T01:38:31.571Z,78.28
2023-02-03T01:39:31.567Z,78.34
2023-02-03T01:40:31.555Z,78.04
2023-02-03T01:41:32.565Z,78.24
2023-02-03T01:42:32.515Z,78.14
2023-02-03T01:43:32.518Z,78.55
2023-02-03T01:44:32.568Z,78.45
2023-02-03T01:45:32.077Z,78.76
2023-02-03T01:46:31.566Z,78.66
2023-02-03T01:47:31.469Z,78.66
2023-02-03T01:48:31.475Z,78.45
2023-02-03T01:49:32.451Z,78.76
2023-02-03T01:50:31.481Z,78.66
2023-02-03T01:51:32.059Z,78.76
2023-02-03T01:52:31.467Z,78.97
2023-02-03T01:53:32.433Z,78.72
2023-02-03T01:54:31.419Z,78.66
2023-02-03T01:55:31.390Z,78.66
2023-02-03T01:56:31.379Z,78.55
2023-02-03T01:57:32.083Z,78.86
2023-02-03T01:58:31.344Z,78.55
2023-02-03T01:59:31.345Z,78.86
2023-02-03T02:00:31.345Z,78.66
2023-02-03T02:01:31.442Z,79.17
2023-02-03T02:02:31.385Z,79.17
2023-02-03T02:03:31.339Z,79.07
2023-02-03T02:04:31.326Z,78.97
2023-02-03T02:05:31.282Z,79.27
2023-02-03T02:06:31.299Z,79.27
2023-02-03T02:07:31.276Z,79.38
2023-02-03T02:08:31.280Z,79.27
2023-02-03T02:09:31.272Z,79.58
2023-02-03T02:10:31.301Z,79.48
2023-02-03T02:11:32.247Z,79.58
2023-02-03T02:12:31.238Z,79.55
2023-02-03T02:13:31.207Z,79.34
2023-02-03T02:14:31.175Z,79.55
2023-02-03T02:15:31.257Z,79.55
2023-02-03T02:16:32.163Z,79.44
2023-02-03T02:17:31.175Z,79.24
2023-02-03T02:18:32.208Z,79.44
2023-02-03T02:19:31.119Z,79.30
2023-02-03T02:20:32.129Z,79.34
2023-02-03T02:21:32.074Z,79.34
2023-02-03T02:22:32.108Z,79.44
2023-02-03T02:23:31.109Z,79.24
2023-02-03T02:24:32.092Z,79.24
2023-02-03T02:25:31.080Z,79.41
2023-02-03T02:26:32.055Z,79.34
2023-02-03T02:27:31.059Z,79.30
2023-02-03T02:28:31.074Z,79.75
2023-02-03T02:29:31.049Z,79.24
2023-02-03T02:30:32.029Z,79.41
2023-02-03T02:31:31.116Z,79.41
2023-02-03T02:32:30.977Z,79.55
2023-02-03T02:33:31.007Z,79.86
2023-02-03T02:34:30.990Z,79.44
2023-02-03T02:35:30.986Z,79.72
2023-02-03T02:36:30.947Z,79.93
2023-02-03T02:37:30.943Z,80.33
2023-02-03T02:38:30.947Z,79.96
2023-02-03T02:39:30.946Z,80.02
2023-02-03T02:40:31.893Z,79.82
2023-02-03T02:41:31.917Z,80.23
2023-02-03T02:42:31.869Z,80.02
2023-02-03T02:43:30.873Z,79.93
2023-02-03T02:44:30.865Z,80.13
2023-02-03T02:45:30.884Z,80.23
2023-02-03T02:46:30.943Z,80.02
2023-02-03T02:47:30.877Z,79.99
2023-02-03T02:48:30.809Z,79.82
2023-02-03T02:49:30.795Z,80.61
2023-02-03T02:50:31.829Z,80.51
2023-02-03T02:51:30.832Z,80.51
2023-02-03T02:52:30.782Z,80.30
2023-02-03T02:53:30.800Z,80.30
2023-02-03T02:54:30.778Z,80.47
2023-02-03T02:55:30.735Z,81.23
2023-02-03T02:56:31.771Z,80.81
2023-02-03T02:57:30.713Z,80.81
2023-02-03T02:58:30.734Z,80.51
2023-02-03T02:59:31.703Z,80.91
2023-02-03T03:00:31.712Z,80.81
2023-02-03T03:01:30.729Z,80.67
2023-02-03T03:02:31.666Z,80.91
2023-02-03T03:03:30.656Z,80.88
2023-02-03T03:04:30.755Z,81.29
2023-02-03T03:05:30.652Z,80.88
2023-02-03T03:06:30.681Z,81.29
2023-02-03T03:07:30.624Z,80.98
2023-02-03T03:08:30.616Z,80.67
2023-02-03T03:09:31.599Z,82.42
2023-02-03T03:10:30.622Z,82.32
2023-02-03T03:11:30.588Z,82.05
2023-02-03T03:12:30.570Z,82.01
2023-02-03T03:13:30.549Z,81.70
2023-02-03T03:14:31.564Z,81.91
2023-02-03T03:15:30.546Z,83.04
2023-02-03T03:16:30.518Z,81.91
2023-02-03T03:17:30.531Z,82.18
2023-02-03T03:18:31.521Z,82.28
2023-02-03T03:19:30.567Z,81.67
2023-02-03T03:20:31.487Z,82.39
2023-02-03T03:21:30.461Z,82.21
2023-02-03T03:22:30.450Z,81.76
2023-02-03T03:23:30.443Z,81.81
2023-02-03T03:24:30.436Z,81.76
2023-02-03T03:25:30.491Z,82.01
2023-02-03T03:26:30.446Z,82.79
2023-02-03T03:27:30.399Z,82.34
2023-02-03T03:28:30.398Z,82.45
2023-02-03T03:29:30.377Z,81.11
2023-02-03T03:30:30.362Z,81.83
2023-02-03T03:31:30.494Z,82.34
2023-02-03T03:32:30.339Z,81.93
2023-02-03T03:33:31.347Z,81.32
2023-02-03T03:34:30.305Z,81.62
2023-02-03T03:35:30.305Z,81.32
2023-02-03T03:36:30.295Z,81.62
2023-02-03T03:37:31.277Z,82.14
2023-02-03T03:38:30.306Z,82.86
2023-02-03T03:39:30.295Z,81.93
2023-02-03T03:40:30.253Z,82.34
2023-02-03T03:41:30.251Z,82.14
2023-02-03T03:42:31.899Z,82.34
2023-02-03T03:43:30.211Z,81.83
2023-02-03T03:44:31.250Z,81.93
2023-02-03T03:45:31.185Z,81.83
2023-02-03T03:46:30.302Z,82.14
2023-02-03T03:47:31.188Z,82.79
2023-02-03T03:48:30.174Z,81.52
2023-02-03T03:49:31.164Z,82.76
2023-02-03T03:50:30.170Z,81.73
2023-02-03T03:51:31.165Z,82.00
2023-02-03T03:52:30.142Z,82.41
2023-02-03T03:53:30.096Z,82.14
2023-02-03T03:54:30.112Z,81.79
2023-02-03T03:55:30.069Z,81.79
2023-02-03T03:56:30.109Z,82.10
2023-02-03T03:57:30.080Z,82.41
2023-02-03T03:58:31.070Z,82.62
2023-02-03T03:59:31.026Z,82.00
2023-02-03T04:00:37.712Z,81.45
2023-02-03T04:01:31.170Z,80.83
2023-02-03T04:02:30.122Z,81.07
2023-02-03T04:03:30.048Z,80.83
2023-02-03T04:04:31.015Z,81.07
2023-02-03T04:05:30.957Z,81.28
2023-02-03T04:06:30.988Z,81.28
2023-02-03T04:07:29.978Z,81.69
2023-02-03T04:08:29.959Z,81.48
2023-02-03T04:09:29.922Z,82.51
2023-02-03T04:10:29.929Z,82.31
2023-02-03T04:11:30.951Z,81.69
2023-02-03T04:12:30.894Z,82.34
2023-02-03T04:13:29.899Z,82.00
2023-02-03T04:14:29.889Z,82.82
2023-02-03T04:15:30.863Z,81.90
2023-02-03T04:16:29.969Z,82.51
2023-02-03T04:17:29.857Z,82.71
2023-02-03T04:18:29.850Z,82.51
2023-02-03T04:19:29.837Z,82.41
2023-02-03T04:20:30.035Z,82.37
2023-02-03T04:21:29.790Z,82.37
2023-02-03T04:22:30.780Z,82.57
2023-02-03T04:23:29.776Z,81.65
2023-02-03T04:24:30.905Z,81.76
2023-02-03T04:25:29.764Z,82.68
2023-02-03T04:26:29.766Z,82.57
2023-02-03T04:27:29.738Z,82.47
2023-02-03T04:28:29.752Z,82.27
2023-02-03T04:29:30.740Z,81.65
2023-02-03T04:30:30.028Z,82.57
2023-02-03T04:31:29.806Z,82.37
2023-02-03T04:32:29.670Z,82.68
2023-02-03T04:33:29.664Z,82.68
2023-02-03T04:34:29.670Z,82.47
2023-02-03T04:35:29.651Z,82.47
2023-02-03T04:36:29.641Z,82.84
2023-02-03T04:37:30.618Z,81.71
2023-02-03T04:38:29.605Z,81.71
2023-02-03T04:39:29.582Z,82.43
2023-02-03T04:40:29.895Z,82.68
2023-02-03T04:41:29.576Z,82.64
2023-02-03T04:42:29.563Z,82.75
2023-02-03T04:43:30.595Z,82.13
2023-02-03T04:44:29.527Z,82.47
2023-02-03T04:45:29.560Z,82.47
2023-02-03T04:46:29.553Z,83.29
2023-02-03T04:47:29.512Z,83.15
2023-02-03T04:48:30.498Z,83.05
2023-02-03T04:49:29.515Z,83.26
2023-02-03T04:50:29.565Z,82.23
2023-02-03T04:51:30.449Z,82.33
2023-02-03T04:52:29.460Z,82.43
2023-02-03T04:53:29.447Z,82.84
2023-02-03T04:54:30.481Z,82.33
2023-02-03T04:55:29.447Z,82.03
2023-02-03T04:56:29.409Z,82.54
2023-02-03T04:57:29.423Z,82.91
2023-02-03T04:58:29.389Z,82.95
2023-02-03T04:59:29.401Z,82.09
2023-02-03T05:00:29.761Z,82.09
2023-02-03T05:01:30.350Z,83.01
2023-02-03T05:02:30.399Z,82.54
2023-02-03T05:03:29.453Z,84.08
2023-02-03T05:04:29.320Z,82.70
2023-02-03T05:05:29.321Z,82.60
2023-02-03T05:06:29.306Z,82.40
2023-02-03T05:07:30.301Z,82.50
2023-02-03T05:08:29.269Z,82.50
2023-02-03T05:09:29.367Z,81.99
2023-02-03T05:10:29.594Z,82.91
2023-02-03T05:11:30.232Z,82.67
2023-02-03T05:12:29.261Z,82.97
2023-02-03T05:13:29.282Z,82.56
2023-02-03T05:14:29.220Z,82.40
2023-02-03T05:15:30.216Z,83.07
2023-02-03T05:16:29.302Z,82.77
2023-02-03T05:17:29.197Z,82.46
2023-02-03T05:18:29.188Z,82.40
2023-02-03T05:19:30.164Z,82.81
2023-02-03T05:20:29.471Z,82.67
2023-02-03T05:21:29.162Z,82.15
2023-02-03T05:22:29.127Z,82.50
2023-02-03T05:23:30.118Z,82.60
2023-02-03T05:24:29.094Z,82.81
2023-02-03T05:25:29.111Z,82.26
2023-02-03T05:26:29.093Z,82.15
2023-02-03T05:27:29.073Z,82.36
2023-02-03T05:28:29.065Z,82.60
2023-02-03T05:29:29.064Z,82.56
2023-02-03T05:30:29.574Z,82.15
2023-02-03T05:31:30.073Z,82.46
2023-02-03T05:32:29.018Z,82.26
2023-02-03T05:33:28.993Z,81.85
2023-02-03T05:34:29.016Z,81.64
2023-02-03T05:35:28.991Z,82.36
2023-02-03T05:36:29.017Z,82.15
2023-02-03T05:37:28.971Z,82.15
2023-02-03T05:38:28.942Z,81.64
2023-02-03T05:39:28.981Z,81.85
2023-02-03T05:40:29.329Z,82.15
2023-02-03T05:41:28.901Z,82.36
2023-02-03T05:42:28.893Z,81.95
2023-02-03T05:43:28.910Z,82.05
2023-02-03T05:44:29.895Z,81.74
2023-02-03T05:45:28.923Z,81.54
2023-02-03T05:46:28.881Z,81.54
2023-02-03T05:47:28.867Z,82.36
2023-02-03T05:48:28.845Z,81.09
2023-02-03T05:49:28.817Z,81.64
2023-02-03T05:50:29.217Z,81.23
2023-02-03T05:51:28.850Z,81.29
2023-02-03T05:52:29.787Z,80.88
2023-02-03T05:53:28.789Z,80.78
2023-02-03T05:54:28.793Z,81.02
2023-02-03T05:55:28.764Z,80.62
2023-02-03T05:56:29.807Z,81.43
2023-02-03T05:57:30.184Z,81.09
2023-02-03T05:58:28.742Z,80.92
2023-02-03T05:59:29.714Z,80.92
2023-02-03T06:00:29.118Z,81.02
2023-02-03T06:01:29.684Z,82.40
2023-02-03T06:02:28.687Z,81.95
2023-02-03T06:03:28.740Z,81.57
2023-02-03T06:04:28.708Z,81.13
2023-02-03T06:05:28.642Z,81.54
2023-02-03T06:06:29.676Z,80.82
2023-02-03T06:07:28.634Z,81.09
2023-02-03T06:08:29.626Z,80.37
2023-02-03T06:09:28.616Z,80.82
2023-02-03T06:10:29.093Z,80.47
2023-02-03T06:11:28.627Z,80.41
2023-02-03T06:12:29.580Z,80.92
2023-02-03T06:13:28.635Z,80.62
2023-02-03T06:14:29.572Z,80.37
2023-02-03T06:15:28.553Z,80.27
2023-02-03T06:16:28.588Z,80.82
2023-02-03T06:17:28.581Z,80.47
2023-02-03T06:18:28.510Z,80.00
2023-02-03T06:19:28.507Z,80.37
2023-02-03T06:20:28.980Z,80.17
2023-02-03T06:21:28.527Z,80.27
2023-02-03T06:22:29.510Z,79.96
2023-02-03T06:23:28.453Z,79.55
2023-02-03T06:24:28.446Z,79.55
2023-02-03T06:25:28.448Z,79.55
2023-02-03T06:26:28.437Z,79.24
2023-02-03T06:27:28.443Z,79.55
2023-02-03T06:28:28.431Z,79.66
2023-02-03T06:29:28.442Z,79.75
2023-02-03T06:30:28.828Z,79.24
2023-02-03T06:31:28.536Z,79.35
2023-02-03T06:32:28.359Z,79.35
2023-02-03T06:33:28.368Z,79.55
2023-02-03T06:34:28.374Z,79.66
2023-02-03T06:35:29.421Z,79.66
2023-02-03T06:36:29.317Z,79.55
2023-02-03T06:37:28.299Z,79.38
2023-02-03T06:38:28.322Z,79.49
2023-02-03T06:39:28.296Z,79.55
2023-02-03T06:40:28.769Z,79.66
2023-02-03T06:41:28.269Z,79.90
2023-02-03T06:42:28.265Z,79.35
2023-02-03T06:43:28.239Z,79.45
2023-02-03T06:44:28.245Z,79.14
2023-02-03T06:45:28.247Z,79.49
2023-02-03T06:46:28.316Z,79.80
2023-02-03T06:47:28.192Z,79.45
2023-02-03T06:48:28.192Z,79.28
2023-02-03T06:49:29.189Z,79.96
2023-02-03T06:50:29.744Z,79.66
2023-02-03T06:51:29.172Z,79.24
2023-02-03T06:52:28.153Z,79.24
2023-02-03T06:53:28.140Z,78.83
2023-02-03T06:54:29.144Z,78.74
2023-02-03T06:55:28.112Z,78.83
2023-02-03T06:56:28.148Z,78.53
2023-02-03T06:57:28.112Z,78.83
2023-02-03T06:58:28.094Z,78.83
2023-02-03T06:59:28.069Z,78.74
2023-02-03T07:00:28.499Z,78.63
2023-02-03T07:01:28.067Z,78.80
2023-02-03T07:02:28.175Z,78.28
2023-02-03T07:03:28.035Z,78.32
2023-02-03T07:04:28.018Z,78.42
2023-02-03T07:05:28.197Z,78.19
2023-02-03T07:06:28.044Z,77.87
2023-02-03T07:07:27.982Z,77.47
2023-02-03T07:08:27.988Z,77.87
2023-02-03T07:09:27.950Z,78.19
2023-02-03T07:10:28.284Z,77.47
2023-02-03T07:11:27.923Z,77.61
2023-02-03T07:12:27.947Z,78.19
2023-02-03T07:13:27.932Z,78.08
2023-02-03T07:14:27.924Z,77.87
2023-02-03T07:15:27.917Z,77.47
2023-02-03T07:16:27.890Z,77.67
2023-02-03T07:17:27.892Z,77.36
2023-02-03T07:18:47.009Z,77.98
2023-02-03T07:19:28.835Z,77.57
2023-02-03T07:20:28.171Z,77.98
2023-02-03T07:21:27.831Z,77.81
2023-02-03T07:22:27.835Z,77.29
2023-02-03T07:23:27.844Z,78.08
2023-02-03T07:24:28.816Z,77.50
2023-02-03T07:25:27.816Z,77.77
2023-02-03T07:26:27.791Z,78.19
2023-02-03T07:27:27.773Z,77.91
2023-02-03T07:28:27.804Z,78.02
2023-02-03T07:29:27.744Z,77.71
2023-02-03T07:30:28.112Z,77.67
2023-02-03T07:31:27.857Z,77.57
2023-02-03T07:32:27.739Z,77.16
2023-02-03T07:33:27.686Z,77.26
2023-02-03T07:34:28.692Z,77.53
2023-02-03T07:35:28.712Z,77.16
2023-02-03T07:36:27.680Z,77.71
2023-02-03T07:37:28.660Z,77.61
2023-02-03T07:38:27.696Z,77.06
2023-02-03T07:39:27.656Z,77.61
2023-02-03T07:40:27.949Z,77.57
2023-02-03T07:41:27.627Z,77.26
2023-02-03T07:42:27.622Z,77.09
2023-02-03T07:43:27.622Z,77.16
2023-02-03T07:44:28.563Z,76.89
2023-02-03T07:45:27.580Z,76.95
2023-02-03T07:46:27.616Z,76.85
2023-02-03T07:47:27.541Z,76.65
2023-02-03T07:48:27.544Z,76.65
2023-02-03T07:49:27.549Z,76.75
2023-02-03T07:50:27.869Z,76.24
2023-02-03T07:51:27.589Z,76.14
2023-02-03T07:52:27.527Z,76.14
2023-02-03T07:53:27.536Z,76.54
2023-02-03T07:54:28.503Z,76.24
2023-02-03T07:55:28.446Z,76.10
2023-02-03T07:56:27.451Z,75.89
2023-02-03T07:57:28.514Z,76.03
2023-02-03T07:58:27.462Z,76.03
2023-02-03T07:59:27.403Z,75.99
2023-02-03T08:00:27.825Z,75.69
2023-02-03T08:01:27.434Z,75.73
2023-02-03T08:02:27.416Z,75.62
2023-02-03T08:03:27.378Z,76.14
2023-02-03T08:04:27.461Z,75.38
2023-02-03T08:05:27.389Z,75.59
2023-02-03T08:06:27.355Z,75.69
2023-02-03T08:07:28.319Z,75.48
2023-02-03T08:08:27.337Z,75.31
2023-02-03T08:09:28.299Z,75.52
2023-02-03T08:10:27.716Z,76.14
2023-02-03T08:11:27.342Z,75.69
2023-02-03T08:12:27.291Z,75.21
2023-02-03T08:13:27.279Z,75.28
2023-02-03T08:14:28.277Z,75.38
2023-02-03T08:15:27.248Z,74.66
2023-02-03T08:16:28.352Z,75.69
2023-02-03T08:17:27.243Z,74.66
2023-02-03T08:18:27.247Z,74.56
2023-02-03T08:19:27.190Z,74.70
2023-02-03T08:20:27.643Z,75.28
2023-02-03T08:21:27.181Z,75.48
2023-02-03T08:22:28.168Z,75.69
2023-02-03T08:23:28.195Z,75.45
2023-02-03T08:24:27.169Z,75.69
2023-02-03T08:25:27.129Z,74.87
2023-02-03T08:26:27.120Z,74.77
2023-02-03T08:27:28.111Z,74.46
2023-02-03T08:28:28.112Z,74.97
2023-02-03T08:29:27.152Z,74.77
2023-02-03T08:30:27.588Z,74.66
2023-02-03T08:31:27.180Z,74.77
2023-02-03T08:32:28.063Z,74.36
2023-02-03T08:33:27.121Z,74.05
2023-02-03T08:34:27.050Z,74.32
2023-02-03T08:35:27.047Z,73.81
2023-02-03T08:36:27.052Z,74.29
2023-02-03T08:37:27.047Z,74.46
2023-02-03T08:38:27.049Z,74.46
2023-02-03T08:39:26.989Z,74.46
2023-02-03T08:40:28.359Z,74.66
2023-02-03T08:41:27.945Z,74.49
2023-02-03T08:42:27.949Z,74.66
2023-02-03T08:43:27.959Z,74.66
2023-02-03T08:44:26.933Z,74.26
2023-02-03T08:45:26.958Z,74.22
2023-02-03T08:46:26.932Z,73.74
2023-02-03T08:47:26.927Z,73.64
2023-02-03T08:48:26.908Z,74.46
2023-02-03T08:49:27.872Z,73.95
2023-02-03T08:50:27.196Z,73.95
2023-02-03T08:51:26.878Z,74.26
2023-02-03T08:52:26.838Z,74.22
2023-02-03T08:53:26.839Z,74.02
2023-02-03T08:54:26.811Z,73.40
2023-02-03T08:55:26.813Z,73.40
2023-02-03T08:56:27.788Z,72.89
2023-02-03T08:57:26.816Z,72.58
2023-02-03T08:58:26.776Z,73.06
2023-02-03T08:59:26.788Z,72.89
2023-02-03T09:00:27.140Z,73.20
2023-02-03T09:01:26.793Z,73.40
2023-02-03T09:02:26.758Z,72.99
2023-02-03T09:03:26.757Z,73.44
2023-02-03T09:04:26.817Z,72.99
2023-02-03T09:05:26.732Z,73.40
2023-02-03T09:06:26.758Z,73.71
2023-02-03T09:07:26.684Z,73.20
2023-02-03T09:08:26.900Z,73.30
2023-02-03T09:09:26.681Z,73.27
2023-02-03T09:10:27.129Z,72.78
2023-02-03T09:11:26.659Z,73.44
2023-02-03T09:12:26.613Z,73.30
2023-02-03T09:13:26.674Z,73.30
2023-02-03T09:14:26.618Z,72.99
2023-02-03T09:15:26.590Z,73.10
2023-02-03T09:16:26.700Z,73.40
2023-02-03T09:17:26.629Z,72.69
2023-02-03T09:18:26.685Z,72.78
2023-02-03T09:19:26.567Z,73.30
2023-02-03T09:20:27.079Z,73.16
2023-02-03T09:21:38.643Z,73.16
2023-02-03T09:22:27.579Z,73.30
2023-02-03T09:23:26.570Z,72.96
2023-02-03T09:24:26.556Z,73.30
2023-02-03T09:25:27.512Z,73.57
2023-02-03T09:26:27.339Z,73.50
2023-02-03T09:27:26.480Z,74.02
2023-02-03T09:28:26.473Z,73.40
2023-02-03T09:29:27.452Z,73.47
2023-02-03T09:30:27.131Z,73.57
2023-02-03T09:31:26.443Z,73.30
2023-02-03T09:32:26.474Z,73.50
2023-02-03T09:33:26.402Z,73.81
2023-02-03T09:34:26.440Z,73.50
2023-02-03T09:35:26.418Z,73.71
2023-02-03T09:36:27.366Z,73.68
2023-02-03T09:37:26.415Z,74.11
2023-02-03T09:38:27.362Z,74.11
2023-02-03T09:39:27.368Z,73.61
2023-02-03T09:40:27.655Z,74.08
2023-02-03T09:41:26.369Z,73.71
2023-02-03T09:42:26.292Z,73.50
2023-02-03T09:43:26.312Z,73.81
2023-02-03T09:44:26.298Z,74.32
2023-02-03T09:45:26.310Z,73.91
2023-02-03T09:46:26.409Z,74.02
2023-02-03T09:47:26.232Z,74.22
2023-02-03T09:48:26.294Z,74.02
2023-02-03T09:49:26.282Z,73.81
2023-02-03T09:50:26.605Z,73.88
2023-02-03T09:51:26.250Z,73.27
2023-02-03T09:52:26.249Z,73.47
2023-02-03T09:53:26.178Z,73.33
2023-02-03T09:54:26.230Z,73.36
2023-02-03T09:55:26.148Z,73.47
2023-02-03T09:56:26.181Z,73.88
2023-02-03T09:57:26.149Z,73.16
2023-02-03T09:58:26.192Z,73.68
2023-02-03T09:59:26.104Z,74.02
2023-02-03T10:00:26.487Z,73.61
2023-02-03T10:01:26.196Z,73.98
2023-02-03T10:02:27.190Z,73.27
2023-02-03T10:03:26.095Z,73.57
2023-02-03T10:04:26.070Z,73.68
2023-02-03T10:05:26.073Z,73.78
2023-02-03T10:06:26.089Z,73.68
2023-02-03T10:07:26.066Z,74.11
2023-02-03T10:08:27.063Z,73.47
2023-02-03T10:09:27.033Z,74.43
2023-02-03T10:10:26.478Z,74.08
2023-02-03T10:11:25.983Z,74.11
2023-02-03T10:12:26.976Z,74.22
2023-02-03T10:13:25.975Z,74.53
2023-02-03T10:14:26.974Z,74.08
2023-02-03T10:15:25.973Z,74.19
2023-02-03T10:16:26.004Z,73.57
2023-02-03T10:17:25.905Z,74.22
2023-02-03T10:18:25.975Z,73.81
2023-02-03T10:19:25.915Z,74.02
2023-02-03T10:20:26.220Z,74.08
2023-02-03T10:21:25.922Z,73.88
2023-02-03T10:22:25.901Z,73.71
2023-02-03T10:23:25.893Z,74.22
2023-02-03T10:24:25.856Z,74.02
2023-02-03T10:25:25.828Z,74.22
2023-02-03T10:26:25.848Z,74.43
2023-02-03T10:27:25.893Z,73.78
2023-02-03T10:28:25.905Z,73.47
2023-02-03T10:29:25.829Z,73.57
2023-02-03T10:30:26.002Z,74.19
2023-02-03T10:31:25.894Z,73.81
2023-02-03T10:32:25.772Z,73.88
2023-02-03T10:33:25.749Z,73.98
2023-02-03T10:34:26.766Z,73.88
2023-02-03T10:35:25.760Z,74.08
2023-02-03T10:36:25.716Z,74.02
2023-02-03T10:37:26.167Z,74.39
2023-02-03T10:38:25.790Z,73.98
2023-02-03T10:39:25.707Z,74.26
2023-02-03T10:40:26.031Z,73.98
2023-02-03T10:41:26.692Z,74.29
2023-02-03T10:42:26.659Z,74.63
2023-02-03T10:43:26.642Z,75.45
2023-02-03T10:44:26.641Z,75.45
2023-02-03T10:45:26.614Z,75.42
2023-02-03T10:46:25.687Z,75.45
2023-02-03T10:47:26.593Z,75.52
2023-02-03T10:48:25.615Z,75.21
2023-02-03T10:49:26.692Z,75.01
2023-02-03T10:50:25.868Z,75.86
2023-02-03T10:51:26.548Z,75.45
2023-02-03T10:52:26.552Z,75.55
2023-02-03T10:53:25.545Z,75.52
2023-02-03T10:54:25.584Z,75.42
2023-02-03T10:55:25.644Z,76.17
2023-02-03T10:56:25.505Z,76.27
2023-02-03T10:57:26.480Z,75.42
2023-02-03T10:58:25.464Z,75.62
2023-02-03T10:59:25.478Z,75.52
2023-02-03T11:00:26.713Z,76.03
2023-02-03T11:01:25.486Z,75.62
2023-02-03T11:02:25.472Z,75.96
2023-02-03T11:03:25.477Z,76.03
2023-02-03T11:04:26.424Z,75.96
2023-02-03T11:05:25.408Z,76.13
2023-02-03T11:06:25.439Z,75.82
2023-02-03T11:07:25.377Z,75.72
2023-02-03T11:08:25.397Z,75.72
2023-02-03T11:09:26.358Z,75.72
2023-02-03T11:10:25.716Z,76.13
2023-02-03T11:11:25.494Z,75.93
2023-02-03T11:12:25.327Z,76.54
2023-02-03T11:13:25.395Z,76.84
2023-02-03T11:14:25.332Z,76.91
2023-02-03T11:15:25.495Z,77.87
2023-02-03T11:16:25.329Z,77.67
2023-02-03T11:17:25.292Z,78.24
2023-02-03T11:18:25.300Z,77.97
2023-02-03T11:19:25.277Z,78.79
2023-02-03T11:20:25.319Z,79.20
2023-02-03T11:21:26.232Z,79.30
2023-02-03T11:22:25.263Z,79.30
2023-02-03T11:23:25.232Z,79.10
2023-02-03T11:24:25.247Z,79.50
2023-02-03T11:25:25.771Z,79.20
2023-02-03T11:26:25.251Z,79.20
2023-02-03T11:27:25.154Z,80.02
2023-02-03T11:28:25.154Z,80.33
2023-02-03T11:29:26.230Z,80.26
2023-02-03T11:30:25.324Z,80.22
2023-02-03T11:31:26.000Z,81.08
2023-02-03T11:32:25.113Z,80.83
2023-02-03T11:33:25.129Z,80.83
2023-02-03T11:34:25.103Z,80.74
2023-02-03T11:35:25.081Z,81.29
2023-02-03T11:36:26.074Z,80.98
2023-02-03T11:37:25.174Z,82.00
2023-02-03T11:38:25.026Z,82.41
2023-02-03T11:39:26.060Z,82.41
2023-02-03T11:40:25.371Z,81.79
2023-02-03T11:41:26.035Z,81.24
2023-02-03T11:42:25.073Z,82.07
2023-02-03T11:43:25.033Z,82.41
2023-02-03T11:44:24.972Z,82.48
2023-02-03T11:45:24.982Z,83.03
2023-02-03T11:46:25.016Z,82.37
2023-02-03T11:47:24.964Z,82.37
2023-02-03T11:48:25.949Z,82.21
2023-02-03T11:49:24.956Z,82.17
2023-02-03T11:50:24.960Z,81.76
2023-02-03T11:51:24.959Z,82.51
2023-02-03T11:52:24.893Z,82.57
2023-02-03T11:53:24.863Z,83.81
2023-02-03T11:54:25.906Z,82.78
2023-02-03T11:55:24.868Z,82.62
2023-02-03T11:56:24.889Z,82.62
2023-02-03T11:57:24.831Z,83.54
2023-02-03T11:58:24.860Z,83.54
2023-02-03T11:59:24.881Z,83.03
2023-02-03T12:00:24.813Z,83.60
2023-02-03T12:01:25.746Z,83.13
2023-02-03T12:02:24.829Z,82.71
2023-02-03T12:03:24.757Z,83.13
2023-02-03T12:04:24.801Z,83.54
2023-02-03T12:05:24.786Z,83.44
2023-02-03T12:06:24.744Z,82.62
2023-02-03T12:07:24.716Z,83.50
2023-02-03T12:08:24.748Z,82.98
2023-02-03T12:09:24.713Z,82.57
2023-02-03T12:10:24.747Z,82.68
2023-02-03T12:11:25.704Z,82.68
2023-02-03T12:12:24.688Z,82.48
2023-02-03T12:13:24.689Z,83.81
2023-02-03T12:14:24.694Z,82.48
2023-02-03T12:15:25.646Z,83.09
2023-02-03T12:16:25.685Z,82.68
2023-02-03T12:17:24.699Z,82.78
2023-02-03T12:18:24.621Z,82.48
2023-02-03T12:19:24.631Z,82.27
2023-02-03T12:20:24.620Z,82.98
2023-02-03T12:21:25.618Z,82.78
2023-02-03T12:22:24.594Z,81.96
2023-02-03T12:23:24.581Z,82.07
2023-02-03T12:24:24.661Z,82.23
2023-02-03T12:25:24.525Z,82.48
2023-02-03T12:26:24.562Z,81.51
2023-02-03T12:27:24.575Z,82.27
2023-02-03T12:28:33.279Z,82.37
2023-02-03T12:29:25.539Z,82.27
2023-02-03T12:30:24.516Z,81.35
2023-02-03T12:31:24.730Z,81.76
2023-02-03T12:32:25.537Z,81.45
2023-02-03T12:33:25.467Z,81.21
2023-02-03T12:34:24.464Z,80.53
2023-02-03T12:35:24.425Z,80.60
2023-02-03T12:36:24.443Z,80.63
2023-02-03T12:37:24.478Z,81.96
2023-02-03T12:38:24.508Z,80.80
2023-02-03T12:39:24.767Z,80.74
2023-02-03T12:40:25.392Z,81.04
2023-02-03T12:41:24.364Z,80.74
2023-02-03T12:42:25.340Z,80.43
2023-02-03T12:43:24.377Z,80.67
2023-02-03T12:44:24.385Z,80.63
2023-02-03T12:45:24.318Z,80.43
2023-02-03T12:46:25.329Z,79.30
2023-02-03T12:47:24.423Z,79.50
2023-02-03T12:48:24.348Z,79.61
2023-02-03T12:49:24.272Z,79.50
2023-02-03T12:50:24.332Z,79.30
2023-02-03T12:51:24.280Z,78.96
2023-02-03T12:52:24.241Z,79.27